Time;durP1;ratioP1;P1;durP2;ratioP2;P2;SDS_P1;SDS_P2;PMS_P1;PMS_P2;Temp;Humidity;BMP_temperature;BMP_pressure;BME280_temperature;BME280_humidity;BME280_pressure;Samples;Min_cycle;Max_cycle;Signal;HPM_P1;HPM_P2
2022/05/02 00:00:36;;;;;;;12.52;8.57;;;6.80;99.90;;;;;;2238289;64;20154;-70
2022/05/02 00:03:17;;;;;;;10.38;8.27;;;6.80;99.90;;;;;;2236523;64;20218;-71
2022/05/02 00:05:56;;;;;;;10.27;8.27;;;6.80;99.90;;;;;;2238274;64;20170;-71
2022/05/02 00:08:33;;;;;;;13.32;8.43;;;6.70;99.90;;;;;;2238434;64;20173;-71
2022/05/02 00:11:10;;;;;;;10.32;8.05;;;6.70;99.90;;;;;;2237919;64;20233;-71
2022/05/02 00:13:49;;;;;;;9.60;8.40;;;6.70;99.90;;;;;;2238525;64;20161;-72
2022/05/02 00:16:26;;;;;;;12.93;8.90;;;6.60;99.90;;;;;;2237843;64;20191;-71
2022/05/02 00:19:04;;;;;;;11.18;9.23;;;6.60;99.90;;;;;;2235134;64;20254;-71
2022/05/02 00:21:43;;;;;;;13.15;9.02;;;6.60;99.90;;;;;;2235206;64;20759;-71
2022/05/02 00:24:21;;;;;;;9.82;8.30;;;6.50;99.90;;;;;;2236122;64;20207;-72
2022/05/02 00:27:00;;;;;;;11.48;8.43;;;6.50;99.90;;;;;;2234780;64;20166;-71
2022/05/02 00:29:37;;;;;;;13.23;9.25;;;6.50;99.90;;;;;;2237127;64;20284;-71
2022/05/02 00:32:13;;;;;;;14.82;9.02;;;6.50;99.90;;;;;;2238399;64;20316;-70
2022/05/02 00:34:50;;;;;;;12.48;8.95;;;6.40;99.90;;;;;;2238674;64;20189;-71
2022/05/02 00:37:27;;;;;;;10.18;8.95;;;6.40;99.90;;;;;;2237673;64;20174;-71
2022/05/02 00:40:06;;;;;;;11.10;9.10;;;6.40;99.90;;;;;;2238133;64;20170;-72
2022/05/02 00:42:43;;;;;;;10.55;9.40;;;6.40;99.90;;;;;;2238278;64;20177;-71
2022/05/02 00:45:20;;;;;;;9.52;8.43;;;6.40;99.90;;;;;;2238334;64;20591;-72
2022/05/02 00:47:58;;;;;;;11.93;9.18;;;6.40;99.90;;;;;;2234581;64;20314;-70
2022/05/02 00:50:43;;;;;;;12.18;9.23;;;6.40;99.90;;;;;;2238468;64;20750;-69
2022/05/02 00:53:24;;;;;;;12.82;8.85;;;6.30;99.90;;;;;;2236467;64;20226;-71
2022/05/02 00:56:06;;;;;;;12.48;10.07;;;6.30;99.90;;;;;;2237883;64;20171;-72
2022/05/02 00:58:43;;;;;;;10.57;8.73;;;6.30;99.90;;;;;;2238274;64;20157;-70
2022/05/02 01:01:20;;;;;;;10.43;9.13;;;6.30;99.90;;;;;;2230793;64;20384;-71
2022/05/02 01:03:58;;;;;;;14.63;9.60;;;6.30;99.90;;;;;;2230597;64;20212;-71
2022/05/02 01:09:34;;;;;;;15.32;9.75;;;6.20;99.90;;;;;;2238025;64;20195;-71
2022/05/02 01:12:21;;;;;;;13.85;9.25;;;6.20;99.90;;;;;;2237685;64;20224;-71
2022/05/02 01:15:01;;;;;;;14.23;10.65;;;6.20;99.90;;;;;;2232927;64;20211;-70
2022/05/02 01:17:42;;;;;;;12.75;9.13;;;6.10;99.90;;;;;;2238027;64;20359;-72
2022/05/02 01:20:23;;;;;;;10.95;9.65;;;6.10;99.90;;;;;;2237669;64;20170;-71
2022/05/02 01:23:02;;;;;;;11.55;9.60;;;6.10;99.90;;;;;;2230631;64;20246;-71
2022/05/02 01:25:39;;;;;;;12.23;10.55;;;6.10;99.90;;;;;;2234272;64;20668;-72
2022/05/02 01:28:15;;;;;;;12.70;9.88;;;6.00;99.90;;;;;;2237715;64;20336;-70
2022/05/02 01:30:52;;;;;;;12.73;9.10;;;6.00;99.90;;;;;;2238367;64;20189;-71
2022/05/02 01:33:30;;;;;;;16.67;11.02;;;6.00;99.90;;;;;;2238366;64;20373;-70
2022/05/02 01:36:09;;;;;;;14.68;10.30;;;6.00;99.90;;;;;;2238403;64;20225;-71
2022/05/02 01:38:47;;;;;;;13.65;10.82;;;6.00;99.90;;;;;;2238236;64;20339;-70
2022/05/02 01:41:26;;;;;;;14.98;10.63;;;5.90;99.90;;;;;;2237191;64;20202;-70
2022/05/02 01:44:04;;;;;;;18.38;10.80;;;6.00;99.90;;;;;;2237975;64;20192;-71
2022/05/02 01:46:40;;;;;;;12.27;9.98;;;5.90;99.90;;;;;;2237786;64;20198;-70
2022/05/02 01:49:18;;;;;;;12.35;9.77;;;6.00;99.90;;;;;;2235553;64;20188;-70
2022/05/02 01:51:58;;;;;;;11.73;9.68;;;5.90;99.90;;;;;;2238418;64;20207;-70
2022/05/02 01:54:39;;;;;;;12.85;10.73;;;5.90;99.90;;;;;;2238518;64;20211;-70
2022/05/02 01:57:20;;;;;;;14.52;11.05;;;5.90;99.90;;;;;;2238567;64;20229;-70
2022/05/02 02:00:03;;;;;;;12.88;10.60;;;5.90;99.90;;;;;;2239137;64;20273;-71
2022/05/02 02:02:42;;;;;;;18.38;10.35;;;5.90;99.90;;;;;;2238333;64;20166;-70
2022/05/02 02:08:25;;;;;;;13.80;10.68;;;5.80;99.90;;;;;;2235456;64;20186;-71
2022/05/02 02:11:09;;;;;;;13.07;11.60;;;5.80;99.90;;;;;;2236029;64;20201;-71
2022/05/02 02:13:48;;;;;;;18.25;11.57;;;5.80;99.90;;;;;;2238339;64;20693;-70
2022/05/02 02:16:25;;;;;;;15.23;11.35;;;5.80;99.90;;;;;;2238452;64;20170;-71
2022/05/02 02:19:02;;;;;;;18.25;12.43;;;5.70;99.90;;;;;;2238293;64;20158;-71
2022/05/02 02:21:40;;;;;;;14.80;10.90;;;5.70;99.90;;;;;;2239176;64;20211;-71
2022/05/02 02:24:20;;;;;;;16.42;11.25;;;5.70;99.90;;;;;;2238780;64;20226;-70
2022/05/02 02:27:00;;;;;;;15.65;11.90;;;5.70;99.90;;;;;;2235867;64;20214;-71
2022/05/02 02:29:41;;;;;;;15.88;11.88;;;5.90;99.90;;;;;;2239192;64;20246;-70
2022/05/02 02:32:21;;;;;;;15.27;11.23;;;5.70;99.90;;;;;;2236838;64;20301;-71
2022/05/02 02:35:01;;;;;;;18.40;12.25;;;5.60;99.90;;;;;;2239676;64;20235;-70
2022/05/02 02:37:38;;;;;;;16.50;11.88;;;5.60;99.90;;;;;;2239568;64;20194;-70
2022/05/02 02:40:16;;;;;;;19.00;12.32;;;5.60;99.90;;;;;;2241465;64;20194;-70
2022/05/02 02:42:56;;;;;;;15.63;11.82;;;5.50;99.90;;;;;;2242383;64;20183;-72
2022/05/02 02:45:36;;;;;;;18.50;12.48;;;5.50;99.90;;;;;;2238547;64;20170;-71
2022/05/02 02:48:12;;;;;;;17.92;11.63;;;5.50;99.90;;;;;;2237409;64;20314;-70
2022/05/02 02:50:49;;;;;;;17.27;12.07;;;5.50;99.90;;;;;;2239424;64;20210;-71
2022/05/02 02:53:26;;;;;;;17.90;12.73;;;5.50;99.90;;;;;;2239894;64;20296;-71
2022/05/02 02:56:07;;;;;;;18.30;12.85;;;5.40;99.90;;;;;;2238870;64;20169;-70
2022/05/02 02:58:46;;;;;;;18.73;12.95;;;5.40;99.90;;;;;;2232708;64;20171;-70
2022/05/02 03:01:24;;;;;;;18.25;13.05;;;5.40;99.90;;;;;;2235298;64;20354;-70
2022/05/02 03:06:01;;;;;;;19.38;13.43;;;5.40;99.90;;;;;;2241517;64;20553;-70
2022/05/02 03:07:00;;;;;;;14.52;12.32;;;5.40;99.90;;;;;;2240518;64;20261;-69
2022/05/02 03:09:39;;;;;;;22.05;14.10;;;5.40;99.90;;;;;;2235107;64;20178;-70
2022/05/02 03:12:19;;;;;;;17.40;12.70;;;5.40;99.90;;;;;;2237539;64;20150;-70
2022/05/02 03:14:56;;;;;;;15.70;12.52;;;5.40;99.90;;;;;;2240456;64;20225;-69
2022/05/02 03:17:36;;;;;;;15.43;13.52;;;5.30;99.90;;;;;;2242037;64;20162;-70
2022/05/02 03:20:12;;;;;;;17.35;13.00;;;5.30;99.90;;;;;;2239164;64;20177;-71
2022/05/02 03:22:49;;;;;;;17.88;13.60;;;5.30;99.90;;;;;;2238745;64;20643;-71
2022/05/02 03:25:26;;;;;;;19.17;13.95;;;5.30;99.90;;;;;;2238525;64;20161;-71
2022/05/02 03:28:03;;;;;;;19.27;13.32;;;5.20;99.90;;;;;;2238706;64;20607;-70
2022/05/02 03:30:40;;;;;;;18.58;13.30;;;5.20;99.90;;;;;;2238416;64;20188;-70
2022/05/02 03:33:16;;;;;;;20.98;15.43;;;5.20;99.90;;;;;;2238143;64;20205;-71
2022/05/02 03:35:53;;;;;;;20.05;13.63;;;5.20;99.90;;;;;;2238355;64;20162;-71
2022/05/02 03:38:29;;;;;;;21.20;15.27;;;5.10;99.90;;;;;;2238414;64;20243;-70
2022/05/02 03:41:06;;;;;;;18.27;14.73;;;5.10;99.90;;;;;;2239031;64;20166;-70
2022/05/02 03:43:44;;;;;;;21.80;15.27;;;5.10;99.90;;;;;;2234505;64;20192;-71
2022/05/02 03:46:25;;;;;;;18.90;14.05;;;5.10;99.90;;;;;;2236511;64;20796;-69
2022/05/02 03:49:05;;;;;;;22.55;15.38;;;5.00;99.90;;;;;;2239180;64;20277;-70
2022/05/02 03:51:45;;;;;;;23.15;15.60;;;5.10;99.90;;;;;;2238611;64;20193;-70
2022/05/02 03:54:23;;;;;;;18.52;15.77;;;5.00;99.90;;;;;;2238646;64;20200;-69
2022/05/02 03:57:01;;;;;;;20.02;14.75;;;5.00;99.90;;;;;;2238979;64;20188;-70
2022/05/02 03:59:40;;;;;;;21.67;15.27;;;5.00;99.90;;;;;;2238934;64;20210;-71
2022/05/02 04:02:19;;;;;;;19.75;14.23;;;5.00;99.90;;;;;;2239427;64;20221;-70
2022/05/02 04:04:57;;;;;;;19.38;15.38;;;5.00;99.90;;;;;;2239356;64;20198;-70
2022/05/02 04:07:37;;;;;;;22.95;15.07;;;5.00;99.90;;;;;;2238863;64;20204;-70
2022/05/02 04:10:17;;;;;;;21.27;15.38;;;5.00;99.90;;;;;;2239550;64;20174;-70
2022/05/02 04:12:53;;;;;;;19.05;14.98;;;5.00;99.90;;;;;;2232577;64;20174;-70
2022/05/02 04:15:31;;;;;;;21.45;16.02;;;5.00;99.90;;;;;;2238731;64;20196;-71
2022/05/02 04:18:11;;;;;;;19.40;15.48;;;5.00;99.90;;;;;;2238747;64;20190;-70
2022/05/02 04:20:49;;;;;;;21.58;15.43;;;5.00;99.90;;;;;;2238779;64;20253;-71
2022/05/02 04:23:28;;;;;;;20.30;15.68;;;5.00;99.90;;;;;;2239006;64;20214;-69
2022/05/02 04:26:05;;;;;;;24.63;16.30;;;5.10;99.90;;;;;;2241411;64;20192;-70
2022/05/02 04:28:42;;;;;;;22.20;15.95;;;5.00;99.90;;;;;;2238717;64;20809;-70
2022/05/02 04:31:20;;;;;;;20.77;15.70;;;5.10;99.90;;;;;;2238162;64;20290;-69
2022/05/02 04:34:00;;;;;;;22.65;15.88;;;5.10;99.90;;;;;;2237566;64;20230;-70
2022/05/02 04:36:41;;;;;;;20.83;15.30;;;5.10;99.90;;;;;;2238754;64;20214;-71
2022/05/02 04:39:20;;;;;;;25.27;16.60;;;5.10;99.90;;;;;;2238591;64;20170;-71
2022/05/02 04:41:57;;;;;;;21.67;16.35;;;5.10;99.90;;;;;;2238611;64;20181;-70
2022/05/02 04:44:34;;;;;;;20.92;16.48;;;5.10;99.90;;;;;;2238490;64;20315;-70
2022/05/02 04:47:14;;;;;;;19.42;15.93;;;5.20;99.90;;;;;;2232087;64;20170;-70
2022/05/02 04:49:52;;;;;;;23.05;16.42;;;5.10;99.90;;;;;;2231702;64;20266;-71
2022/05/02 04:52:32;;;;;;;21.52;17.27;;;5.10;99.90;;;;;;2238477;64;20212;-71
2022/05/02 04:55:13;;;;;;;22.60;15.98;;;5.10;99.90;;;;;;2239242;64;20170;-70
2022/05/02 04:57:51;;;;;;;18.80;15.52;;;5.10;99.90;;;;;;2240203;64;20243;-70
2022/05/02 05:00:49;;;;;;;16.88;13.53;;;5.10;99.90;;;;;;2238966;64;15079549;-70
2022/05/02 05:03:29;;;;;;;17.63;13.43;;;5.10;99.90;;;;;;2238643;64;20320;-69
2022/05/02 05:06:05;;;;;;;18.83;13.20;;;5.10;99.90;;;;;;2238758;64;20178;-69
2022/05/02 05:08:42;;;;;;;17.23;13.55;;;5.10;99.90;;;;;;2239284;64;20191;-71
2022/05/02 05:11:44;;;;;;;17.92;14.15;;;5.10;99.90;;;;;;2240998;64;20604;-69
2022/05/02 05:18:01;;;;;;;18.65;14.40;;;5.00;99.90;;;;;;2241015;64;20186;-69
2022/05/02 05:20:43;;;;;;;17.30;14.50;;;5.10;99.90;;;;;;2241710;64;20311;-69
2022/05/02 05:23:51;;;;;;;19.55;15.63;;;5.10;99.90;;;;;;2234705;64;20190;-70
2022/05/02 05:27:02;;;;;;;19.67;15.48;;;5.10;99.90;;;;;;2238721;64;20358;-70
2022/05/02 05:29:43;;;;;;;21.00;14.60;;;5.20;99.90;;;;;;2239539;64;20218;-70
2022/05/02 05:32:41;;;;;;;19.05;15.15;;;5.20;99.90;;;;;;2238099;64;20162;-72
2022/05/02 05:35:37;;;;;;;21.48;15.70;;;5.30;99.90;;;;;;2230692;64;20171;-71
2022/05/02 05:38:24;;;;;;;19.20;15.68;;;5.30;99.90;;;;;;2230740;64;20182;-70
2022/05/02 05:41:14;;;;;;;21.55;15.82;;;5.40;99.90;;;;;;2235517;64;20194;-71
2022/05/02 05:43:53;;;;;;;22.10;16.33;;;5.50;99.90;;;;;;2237246;64;20386;-70
2022/05/02 05:46:47;;;;;;;23.63;17.88;;;5.50;99.90;;;;;;2237910;64;20254;-71
2022/05/02 05:49:57;;;;;;;22.55;17.83;;;5.60;99.90;;;;;;2234719;64;20216;-70
2022/05/02 05:52:55;;;;;;;23.90;17.38;;;5.70;99.90;;;;;;2213284;64;20176;-70
2022/05/02 05:55:50;;;;;;;21.58;16.65;;;5.80;99.90;;;;;;2208785;64;20653;-71
2022/05/02 05:58:54;;;;;;;24.25;17.98;;;5.90;99.90;;;;;;2212203;64;20216;-70
2022/05/02 06:01:59;;;;;;;19.90;15.32;;;6.00;99.90;;;;;;2213393;64;20768;-71
2022/05/02 06:04:39;;;;;;;26.40;17.73;;;6.10;99.90;;;;;;2213817;64;20197;-70
2022/05/02 06:07:17;;;;;;;22.33;17.48;;;6.20;99.90;;;;;;2213728;64;20691;-68
2022/05/02 06:09:57;;;;;;;26.50;19.48;;;6.30;99.90;;;;;;2210734;64;20715;-67
2022/05/02 06:12:35;;;;;;;29.63;20.63;;;6.40;99.90;;;;;;2212999;64;20690;-68
2022/05/02 06:18:30;;;;;;;24.02;18.23;;;6.70;99.90;;;;;;2205416;65;20368;-69
2022/05/02 06:21:08;;;;;;;20.08;16.20;;;6.80;99.90;;;;;;2205565;65;20196;-68
2022/05/02 06:24:05;;;;;;;20.98;14.70;;;6.90;99.90;;;;;;2210983;64;20384;-68
2022/05/02 06:26:48;;;;;;;18.50;13.32;;;7.00;99.90;;;;;;2211018;64;20231;-68
2022/05/02 06:29:27;;;;;;;17.60;14.15;;;7.10;99.90;;;;;;2222691;64;20231;-71
2022/05/02 06:32:11;;;;;;;18.60;14.65;;;7.20;99.90;;;;;;2235923;64;20186;-70
2022/05/02 06:34:49;;;;;;;18.83;13.80;;;7.30;99.90;;;;;;2236856;64;20278;-70
2022/05/02 06:37:52;;;;;;;21.33;15.00;;;7.40;99.90;;;;;;2236332;64;20224;-71
2022/05/02 06:40:49;;;;;;;18.52;13.65;;;7.50;99.90;;;;;;2234140;64;20770;-70
2022/05/02 06:43:40;;;;;;;15.93;13.95;;;7.60;99.90;;;;;;2237092;64;20170;-71
2022/05/02 06:46:27;;;;;;;20.48;14.85;;;7.70;99.90;;;;;;2231291;63;20190;-69
2022/05/02 06:49:09;;;;;;;18.02;14.35;;;7.90;99.90;;;;;;2237978;64;20219;-72
2022/05/02 06:51:56;;;;;;;18.95;15.27;;;8.00;99.90;;;;;;2238526;64;20505;-68
2022/05/02 06:54:35;;;;;;;21.08;15.63;;;8.00;99.90;;;;;;2239409;64;20682;-70
2022/05/02 06:57:23;;;;;;;20.20;16.65;;;8.10;99.90;;;;;;2237536;64;20174;-68
2022/05/02 07:00:10;;;;;;;19.20;13.50;;;8.30;99.90;;;;;;2237712;64;20201;-69
2022/05/02 07:03:01;;;;;;;16.98;13.35;;;8.40;99.90;;;;;;2237364;64;20788;-67
2022/05/02 07:05:57;;;;;;;19.50;13.65;;;8.40;99.90;;;;;;2238568;64;20705;-68
2022/05/02 07:09:01;;;;;;;19.63;15.77;;;8.60;99.90;;;;;;2238192;64;20276;-68
2022/05/02 07:12:05;;;;;;;26.15;19.65;;;8.70;99.90;;;;;;2230329;64;20206;-69
2022/05/02 07:15:06;;;;;;;23.83;20.95;;;8.80;99.90;;;;;;2230777;64;20167;-68
2022/05/02 07:17:42;;;;;;;24.65;19.27;;;8.80;99.90;;;;;;2231314;64;20159;-69
2022/05/02 07:20:46;;;;;;;18.83;14.98;;;9.20;99.90;;;;;;2231250;64;20218;-69
2022/05/02 07:23:51;;;;;;;16.05;14.40;;;9.00;99.90;;;;;;2231227;64;20678;-68
2022/05/02 07:26:35;;;;;;;14.27;10.95;;;9.20;99.90;;;;;;2230967;64;20302;-68
2022/05/02 07:29:17;;;;;;;11.90;9.25;;;9.30;99.90;;;;;;2231206;64;20591;-69
2022/05/02 07:32:01;;;;;;;12.20;8.82;;;9.40;99.90;;;;;;2231092;64;20170;-69
2022/05/02 07:34:43;;;;;;;8.55;7.65;;;9.50;99.90;;;;;;2231077;64;20200;-69
2022/05/02 07:37:24;;;;;;;8.95;7.05;;;9.50;99.90;;;;;;2231085;64;20328;-70
2022/05/02 07:40:07;;;;;;;9.98;7.72;;;9.60;99.90;;;;;;2235774;64;20768;-69
2022/05/02 07:42:44;;;;;;;8.95;6.80;;;9.70;99.90;;;;;;2238906;64;20296;-69
2022/05/02 07:45:28;;;;;;;11.77;7.70;;;9.70;99.90;;;;;;2238893;64;20674;-68
2022/05/02 07:48:07;;;;;;;10.43;6.60;;;9.80;99.90;;;;;;2238982;64;20245;-69
2022/05/02 07:50:50;;;;;;;11.13;7.18;;;9.90;99.90;;;;;;2238878;64;20652;-71
2022/05/02 07:53:32;;;;;;;13.38;7.40;;;10.00;99.90;;;;;;2238930;64;20173;-69
2022/05/02 07:56:16;;;;;;;9.10;6.30;;;10.00;99.90;;;;;;2238858;64;20158;-69
2022/05/02 07:59:00;;;;;;;7.63;6.10;;;10.10;99.90;;;;;;2238557;64;20174;-69
2022/05/02 08:01:41;;;;;;;10.77;7.22;;;10.10;99.90;;;;;;2238964;64;20301;-68
2022/05/02 08:04:23;;;;;;;14.30;7.60;;;10.10;99.90;;;;;;2238763;64;20162;-68
2022/05/02 08:07:17;;;;;;;11.75;6.88;;;10.20;99.90;;;;;;2238761;64;20643;-69
2022/05/02 08:10:17;;;;;;;8.93;6.72;;;10.20;99.90;;;;;;2238652;64;20273;-69
2022/05/02 08:13:02;;;;;;;8.52;6.45;;;10.30;99.90;;;;;;2237949;64;20197;-70
2022/05/02 08:15:52;;;;;;;8.70;6.75;;;10.40;99.90;;;;;;2238691;64;20231;-69
2022/05/02 08:19:03;;;;;;;7.45;6.30;;;10.40;99.90;;;;;;2234899;64;20210;-70
2022/05/02 08:21:52;;;;;;;10.02;6.68;;;10.40;99.90;;;;;;2240253;64;20196;-69
2022/05/02 08:28:01;;;;;;;8.45;6.57;;;10.70;99.90;;;;;;2238700;64;20319;-69
2022/05/02 08:31:12;;;;;;;7.13;5.88;;;10.70;99.90;;;;;;2238703;64;20185;-68
2022/05/02 08:34:17;;;;;;;8.18;6.18;;;10.70;99.90;;;;;;2238652;64;20660;-69
2022/05/02 08:37:36;;;;;;;8.32;6.30;;;10.80;99.90;;;;;;2238597;64;20206;-69
2022/05/02 08:40:24;;;;;;;8.45;6.55;;;10.90;99.90;;;;;;2238544;64;20170;-68
2022/05/02 08:43:03;;;;;;;8.77;6.88;;;10.90;99.90;;;;;;2238611;64;20215;-69
2022/05/02 08:46:26;;;;;;;7.97;6.75;;;11.00;99.90;;;;;;2238516;64;20191;-70
2022/05/02 08:49:38;;;;;;;9.32;6.07;;;11.00;99.90;;;;;;2238646;63;20179;-70
2022/05/02 08:52:52;;;;;;;7.70;5.90;;;10.90;99.90;;;;;;2238554;64;20175;-69
2022/05/02 08:55:47;;;;;;;8.27;6.75;;;11.30;99.90;;;;;;2238555;64;20210;-69
2022/05/02 08:58:42;;;;;;;7.67;6.23;;;11.40;99.80;;;;;;2238591;64;20202;-69
2022/05/02 09:01:37;;;;;;;8.73;6.30;;;11.50;99.00;;;;;;2233141;64;20267;-69
2022/05/02 09:04:47;;;;;;;7.25;6.00;;;11.50;98.70;;;;;;2238773;64;20376;-70
2022/05/02 09:07:44;;;;;;;8.02;6.00;;;11.60;98.30;;;;;;2236751;64;20184;-69
2022/05/02 09:10:30;;;;;;;8.95;5.65;;;11.70;97.90;;;;;;2239195;64;20179;-69
2022/05/02 09:13:40;;;;;;;7.60;6.40;;;12.30;97.70;;;;;;2240945;64;20708;-68
2022/05/02 09:16:43;;;;;;;9.82;6.88;;;12.00;96.70;;;;;;2239895;64;20588;-69
2022/05/02 09:19:45;;;;;;;7.50;5.78;;;12.10;96.20;;;;;;2238455;64;20250;-69
2022/05/02 09:22:47;;;;;;;8.27;5.75;;;12.30;96.10;;;;;;2238354;64;20534;-68
2022/05/02 09:26:05;;;;;;;7.43;5.68;;;12.50;94.90;;;;;;2238409;64;20179;-69
2022/05/02 09:28:54;;;;;;;9.18;6.80;;;12.50;94.20;;;;;;2238715;64;20741;-69
2022/05/02 09:31:52;;;;;;;6.97;5.75;;;12.60;94.30;;;;;;2238684;64;20163;-68
2022/05/02 09:34:36;;;;;;;8.50;6.28;;;12.70;94.00;;;;;;2238119;64;20358;-68
2022/05/02 09:37:28;;;;;;;11.77;6.80;;;12.90;93.10;;;;;;2237624;64;20190;-70
2022/05/02 09:40:15;;;;;;;7.03;5.80;;;12.90;92.40;;;;;;2239010;64;20178;-69
2022/05/02 09:43:22;;;;;;;8.13;5.50;;;13.10;91.90;;;;;;2238219;64;20342;-69
2022/05/02 09:52:07;;;;;;;7.80;5.85;;;13.60;92.00;;;;;;2238591;64;20170;-68
2022/05/02 09:58:32;;;;;;;7.75;5.97;;;14.00;90.20;;;;;;2241150;64;20233;-69
2022/05/02 10:01:31;;;;;;;7.53;6.10;;;14.20;89.40;;;;;;2238605;64;20292;-69
2022/05/02 10:04:22;;;;;;;7.30;5.93;;;14.50;88.80;;;;;;2237801;64;20349;-69
2022/05/02 10:07:23;;;;;;;7.57;5.68;;;14.80;86.50;;;;;;2238630;64;20390;-70
2022/05/02 10:10:29;;;;;;;7.80;6.05;;;15.00;85.50;;;;;;2238219;64;20589;-69
2022/05/02 10:13:41;;;;;;;5.43;4.88;;;15.20;84.50;;;;;;2238124;64;20769;-70
2022/05/02 10:16:41;;;;;;;7.53;5.60;;;15.40;84.20;;;;;;2238164;64;20334;-69
2022/05/02 10:20:00;;;;;;;7.47;5.95;;;15.70;82.70;;;;;;2238119;64;20166;-68
2022/05/02 10:22:51;;;;;;;;;;;15.90;77.60;;;;;;2239832;64;20643;-69
2022/05/02 10:25:48;;;;;;;5.50;5.00;;;16.00;78.70;;;;;;2239229;64;20295;-69
2022/05/02 10:28:48;;;;;;;6.80;5.60;;;16.10;79.20;;;;;;2238192;64;20311;-68
2022/05/02 10:31:33;;;;;;;5.80;4.97;;;16.30;77.70;;;;;;2239457;64;20196;-69
2022/05/02 10:34:13;;;;;;;7.97;5.70;;;16.30;75.50;;;;;;2239457;64;20169;-69
2022/05/02 10:36:55;;;;;;;6.05;4.93;;;16.40;75.10;;;;;;2239520;64;20688;-69
2022/05/02 10:39:47;;;;;;;8.93;6.05;;;16.50;74.50;;;;;;2239665;64;20342;-69
2022/05/02 10:42:33;;;;;;;7.43;5.57;;;16.70;73.90;;;;;;2239543;64;20638;-70
2022/05/02 10:45:18;;;;;;;8.00;5.88;;;16.70;72.20;;;;;;2239924;64;20300;-70
2022/05/02 10:48:11;;;;;;;6.38;5.47;;;16.60;71.20;;;;;;2240815;64;20276;-69
2022/05/02 10:51:04;;;;;;;7.35;5.53;;;16.30;69.70;;;;;;2239839;64;20586;-69
2022/05/02 10:54:09;;;;;;;5.65;5.07;;;16.30;69.20;;;;;;2239434;64;20277;-69
2022/05/02 10:56:54;;;;;;;7.05;5.75;;;16.40;70.60;;;;;;2239274;64;20170;-69
2022/05/02 10:59:45;;;;;;;6.72;5.60;;;16.60;70.00;;;;;;2239213;64;20198;-70
2022/05/02 11:02:27;;;;;;;7.30;4.40;;;17.30;69.00;;;;;;2239163;64;20211;-69
2022/05/02 11:05:14;;;;;;;6.03;4.88;;;18.50;68.50;;;;;;2239302;64;20184;-69
2022/05/02 11:08:11;;;;;;;6.13;4.40;;;19.70;66.60;;;;;;2239545;64;20170;-70
2022/05/02 11:11:06;;;;;;;6.50;5.00;;;20.70;63.70;;;;;;2240133;64;20170;-68
2022/05/02 11:13:55;;;;;;;7.53;4.87;;;21.70;62.00;;;;;;2239246;64;20174;-69
2022/05/02 11:16:57;;;;;;;4.40;4.00;;;22.50;59.40;;;;;;2239072;64;20303;-68
2022/05/02 11:23:04;;;;;;;4.80;4.32;;;23.60;54.70;;;;;;2238954;64;20236;-70
2022/05/02 11:25:58;;;;;;;4.55;3.88;;;24.30;53.50;;;;;;2238777;64;20174;-69
2022/05/02 11:29:07;;;;;;;5.00;3.93;;;24.90;52.20;;;;;;2241843;64;20631;-69
2022/05/02 11:31:53;;;;;;;4.63;3.38;;;25.40;51.20;;;;;;2239330;64;20249;-69
2022/05/02 11:34:52;;;;;;;3.78;3.40;;;25.60;48.70;;;;;;2238884;64;20671;-70
2022/05/02 11:37:47;;;;;;;4.38;3.70;;;26.10;48.40;;;;;;2237445;64;20228;-69
2022/05/02 11:40:33;;;;;;;3.25;2.95;;;26.90;45.20;;;;;;2238983;64;20183;-69
2022/05/02 11:43:11;;;;;;;3.50;3.00;;;27.80;44.50;;;;;;2238941;64;20602;-70
2022/05/02 11:46:22;;;;;;;3.33;3.03;;;28.50;42.40;;;;;;2238916;64;20257;-69
2022/05/02 11:49:18;;;;;;;3.50;3.20;;;29.30;42.10;;;;;;2238924;64;20234;-70
2022/05/02 11:51:58;;;;;;;3.22;2.90;;;30.00;40.90;;;;;;2239684;64;20166;-69
2022/05/02 11:54:42;;;;;;;2.90;2.70;;;30.50;39.80;;;;;;2239530;64;20295;-69
2022/05/02 11:57:36;;;;;;;2.97;2.67;;;30.90;38.90;;;;;;2238926;64;20188;-70
2022/05/02 12:00:16;;;;;;;2.83;2.53;;;31.40;38.70;;;;;;2238545;64;20170;-69
2022/05/02 12:03:11;;;;;;;3.50;2.80;;;31.80;37.60;;;;;;2239152;64;20258;-70
2022/05/02 12:05:52;;;;;;;3.42;3.22;;;32.50;36.70;;;;;;2240351;64;20186;-70
2022/05/02 12:08:36;;;;;;;4.43;4.03;;;32.70;35.80;;;;;;2239894;64;20239;-70
2022/05/02 12:11:15;;;;;;;4.13;3.78;;;32.80;36.40;;;;;;2238829;64;20692;-70
2022/05/02 12:13:54;;;;;;;3.75;3.42;;;33.20;36.30;;;;;;2238883;64;20182;-70
2022/05/02 12:16:37;;;;;;;5.65;4.00;;;33.60;35.80;;;;;;2238765;64;20237;-70
2022/05/02 12:19:34;;;;;;;6.60;5.45;;;34.00;35.30;;;;;;2238806;64;20579;-70
2022/05/02 12:22:30;;;;;;;5.82;4.75;;;34.30;35.80;;;;;;2238600;64;20715;-70
2022/05/02 12:25:10;;;;;;;5.32;4.20;;;34.20;35.70;;;;;;2238654;64;20277;-70
2022/05/02 12:27:50;;;;;;;7.55;4.38;;;32.60;35.60;;;;;;2238703;64;20174;-69
2022/05/02 12:30:29;;;;;;;5.00;4.50;;;30.80;36.70;;;;;;2238828;64;20170;-69
2022/05/02 12:33:08;;;;;;;5.45;4.95;;;29.30;37.60;;;;;;2238714;64;20222;-69
2022/05/02 12:35:46;;;;;;;6.20;4.40;;;27.70;38.30;;;;;;2238722;64;20190;-70
2022/05/02 12:38:28;;;;;;;5.78;4.32;;;27.60;40.10;;;;;;2238709;64;20704;-70
2022/05/02 12:41:08;;;;;;;4.53;3.70;;;28.70;39.90;;;;;;2238711;64;20606;-70
2022/05/02 12:43:53;;;;;;;5.22;4.28;;;29.70;39.30;;;;;;2238527;64;20757;-68
2022/05/02 12:46:39;;;;;;;5.35;4.55;;;30.80;38.90;;;;;;2238703;64;20207;-71
2022/05/02 12:49:35;;;;;;;5.38;4.15;;;31.50;38.10;;;;;;2239501;64;20329;-69
2022/05/02 12:52:14;;;;;;;5.77;5.10;;;32.40;38.00;;;;;;2242898;64;20196;-70
2022/05/02 12:54:54;;;;;;;5.10;4.70;;;32.40;37.20;;;;;;2240337;64;20915;-68
2022/05/02 13:00:39;;;;;;;4.45;4.05;;;32.30;38.20;;;;;;2239491;64;20196;-71
2022/05/02 13:03:18;;;;;;;9.05;4.53;;;33.00;36.70;;;;;;2239831;64;20234;-70
2022/05/02 13:06:10;;;;;;;8.20;4.55;;;33.70;36.40;;;;;;2242334;64;20170;-69
2022/05/02 13:08:48;;;;;;;5.03;4.63;;;34.10;36.20;;;;;;2242711;64;20178;-71
2022/05/02 13:11:36;;;;;;;6.80;4.57;;;34.70;35.50;;;;;;2241280;64;20196;-71
2022/05/02 13:14:25;;;;;;;8.23;4.47;;;34.90;35.60;;;;;;2240409;64;20198;-70
2022/05/02 13:17:10;;;;;;;5.60;5.00;;;35.80;34.60;;;;;;2238868;64;20191;-70
2022/05/02 13:19:50;;;;;;;4.50;4.10;;;36.20;34.30;;;;;;2239095;64;20182;-71
2022/05/02 13:22:28;;;;;;;6.00;4.32;;;36.60;34.50;;;;;;2238807;64;20292;-71
2022/05/02 13:25:08;;;;;;;4.63;4.20;;;36.80;33.90;;;;;;2238551;64;20166;-70
2022/05/02 13:27:47;;;;;;;6.32;4.70;;;36.10;33.80;;;;;;2238451;64;20196;-71
2022/05/02 13:30:24;;;;;;;10.85;5.18;;;35.70;34.30;;;;;;2238562;64;20162;-70
2022/05/02 13:33:06;;;;;;;5.75;4.57;;;35.90;33.90;;;;;;2238551;64;20174;-70
2022/05/02 13:35:43;;;;;;;5.03;3.40;;;36.60;33.30;;;;;;2238385;64;20199;-69
2022/05/02 13:38:32;;;;;;;4.47;4.07;;;37.20;32.80;;;;;;2238384;64;20188;-70
2022/05/02 13:41:45;;;;;;;5.38;4.30;;;37.60;33.00;;;;;;2238358;64;20336;-71
2022/05/02 13:44:41;;;;;;;4.00;3.70;;;37.30;32.20;;;;;;2238355;64;20166;-70
2022/05/02 13:47:19;;;;;;;;;;;35.60;33.40;;;;;;2238916;64;20591;-71
2022/05/02 13:50:13;;;;;;;5.70;4.60;;;35.90;34.10;;;;;;2238339;64;20055;-70
2022/05/02 13:53:34;;;;;;;5.43;5.03;;;36.60;33.60;;;;;;2238336;64;20338;-71
2022/05/02 13:56:30;;;;;;;6.00;5.05;;;37.10;33.20;;;;;;2231657;64;20154;-69
2022/05/02 13:59:30;;;;;;;4.72;3.92;;;37.30;32.90;;;;;;2239542;64;20174;-70
2022/05/02 14:02:55;;;;;;;4.35;3.90;;;37.60;32.70;;;;;;2239442;64;20173;-70
2022/05/02 14:08:33;;;;;;;5.28;4.72;;;37.60;32.30;;;;;;2239515;64;20162;-70
2022/05/02 14:11:19;;;;;;;5.00;4.60;;;37.60;32.20;;;;;;2239335;64;20215;-71
2022/05/02 14:14:07;;;;;;;4.47;4.18;;;37.40;31.80;;;;;;2239396;64;20352;-70
2022/05/02 14:16:44;;;;;;;4.60;3.90;;;37.60;32.30;;;;;;2239413;64;20191;-71
2022/05/02 14:19:25;;;;;;;5.47;4.97;;;37.60;31.80;;;;;;2239432;64;20192;-70
2022/05/02 14:22:05;;;;;;;5.03;3.95;;;36.50;32.00;;;;;;2239458;64;20284;-71
2022/05/02 14:24:43;;;;;;;4.38;3.95;;;36.50;32.10;;;;;;2239344;64;20181;-70
2022/05/02 14:27:22;;;;;;;4.57;4.13;;;36.70;32.20;;;;;;2239352;64;20183;-69
2022/05/02 14:30:05;;;;;;;4.32;3.97;;;36.50;32.00;;;;;;2239320;64;20262;-70
2022/05/02 14:32:46;;;;;;;5.55;3.67;;;36.40;32.30;;;;;;2238661;64;20213;-69
2022/05/02 14:35:40;;;;;;;4.88;3.92;;;36.80;32.40;;;;;;2237280;64;20297;-70
2022/05/02 14:38:16;;;;;;;3.60;3.30;;;37.40;32.20;;;;;;2239053;64;20190;-70
2022/05/02 14:40:55;;;;;;;6.03;3.70;;;37.60;31.80;;;;;;2239168;64;20174;-70
2022/05/02 14:43:35;;;;;;;3.97;3.67;;;37.80;31.30;;;;;;2239154;63;20269;-70
2022/05/02 14:46:13;;;;;;;4.32;3.70;;;37.80;30.80;;;;;;2238799;64;20190;-69
2022/05/02 14:48:50;;;;;;;4.28;3.80;;;37.60;31.10;;;;;;2239060;64;20194;-70
2022/05/02 14:51:30;;;;;;;5.28;3.85;;;37.50;30.90;;;;;;2239266;64;20178;-70
2022/05/02 14:54:12;;;;;;;4.10;3.42;;;37.50;30.90;;;;;;2239354;64;20207;-70